Terminal Aerodrome Forecast
Issued by NWS North Platte, NE

Home | Current Version | Previous Version | Text Only | Print | Product List | Glossary On
Versions: 1 2 3 4 5 6 7 8 9 10 11 12 13 14 15 16 17 18 19
000
FTUS43 KLBF 250520
TAFLBF
TAF
KLBF 250520Z 2506/2606 13012KT P6SM VCTS BKN100CB
      TEMPO 2506/2509 VRB20G30KT 5SM -TSRA BKN050CB
     FM250900 09005KT P6SM BKN200
     FM251500 28007KT P6SM SKC
     FM251800 30009KT P6SM SKC
     FM260100 VRB06KT P6SM SCT250=

USA.gov is the U.S. government's official web portal to all federal, state and local government web resources and services.